Mielec, Poland
Current Conditions -  °F | °C
As of 11:30 AM on Monday 20 Oct 2014 (Local Time) from EPRZ Reporting Station
Rain Showers Rain Showers  
Wind Chill: 55°   Ceiling: Unl
Heat Index: 55°   Visibility: 6mi
Dew Point: 54°   Wind: 15mph
Humidity: 94%   Direction: 210°SSW
Pressure: 29.94"   Gusts: NA
Location:  50.29°N, 21.43°E
Report Text: EPRZ 200930Z 21013KT 9999 -SHRA FEW026 SCT050CB 13/12 Q1014
Loading
Personal Weather Stations






























Interactive Weather Map
Tropical Storm Tracking
New forecast layout! Learn more

10-Day Weather Forecast

Advertisements
Track Severe Weather on mobile